Time;durP1;ratioP1;P1;durP2;ratioP2;P2;SDS_P1;SDS_P2;PMS_P1;PMS_P2;Temp;Humidity;BMP_temperature;BMP_pressure;BME280_temperature;BME280_humidity;BME280_pressure;Samples;Min_cycle;Max_cycle;Signal;HPM_P1;HPM_P2
2022/10/12 00:00:21;;;;;;;25.88;9.57;;;;;;;;;;4995736;28;20349;-68
2022/10/12 00:02:46;;;;;;;23.50;8.65;;;;;;;;;;4995566;28;20033;-67
2022/10/12 00:05:12;;;;;;;18.80;7.07;;;;;;;;;;4995617;28;20541;-70
2022/10/12 00:07:37;;;;;;;21.80;7.65;;;;;;;;;;4995659;28;20435;-68
2022/10/12 00:10:03;;;;;;;18.25;7.70;;;;;;;;;;4995635;28;20081;-69
2022/10/12 00:12:28;;;;;;;22.15;7.93;;;;;;;;;;4995525;28;20379;-67
2022/10/12 00:14:54;;;;;;;27.77;9.73;;;;;;;;;;4994683;28;20026;-67
2022/10/12 00:17:19;;;;;;;21.08;8.30;;;;;;;;;;4995251;28;20022;-71
2022/10/12 00:19:45;;;;;;;18.25;6.78;;;;;;;;;;4995152;28;20048;-67
2022/10/12 00:22:10;;;;;;;15.63;6.97;;;;;;;;;;4995278;28;20507;-67
2022/10/12 00:24:36;;;;;;;15.48;6.03;;;;;;;;;;4995435;28;20419;-66
2022/10/12 00:27:01;;;;;;;19.35;6.97;;;;;;;;;;4995466;28;20039;-67
2022/10/12 00:29:27;;;;;;;23.77;6.90;;;;;;;;;;4995234;28;20441;-70
2022/10/12 00:31:52;;;;;;;17.35;6.30;;;;;;;;;;4994903;28;20038;-70
2022/10/12 00:34:18;;;;;;;16.05;6.50;;;;;;;;;;4995235;28;20081;-68
2022/10/12 00:36:43;;;;;;;20.20;7.65;;;;;;;;;;4995074;28;20033;-67
2022/10/12 00:39:10;;;;;;;19.90;7.72;;;;;;;;;;4995202;28;20038;-67
2022/10/12 00:41:40;;;;;;;18.20;8.20;;;;;;;;;;4994933;28;20028;-68
2022/10/12 00:44:35;;;;;;;19.63;8.32;;;;;;;;;;4994971;28;20022;-69
2022/10/12 00:47:23;;;;;;;20.85;7.72;;;;;;;;;;4994936;28;20438;-68
2022/10/12 00:50:10;;;;;;;18.92;8.50;;;;;;;;;;4991000;28;20070;-67
2022/10/12 00:52:56;;;;;;;16.27;7.07;;;;;;;;;;4994636;28;20169;-67
2022/10/12 00:55:23;;;;;;;15.70;7.25;;;;;;;;;;4990850;28;20038;-69
2022/10/12 00:57:51;;;;;;;17.27;7.30;;;;;;;;;;4994836;28;20037;-68
2022/10/12 01:00:18;;;;;;;17.05;6.85;;;;;;;;;;4994637;28;20030;-69
2022/10/12 01:02:47;;;;;;;14.82;5.47;;;;;;;;;;4994581;28;20126;-68
2022/10/12 01:05:13;;;;;;;16.23;5.65;;;;;;;;;;4994392;28;20026;-67
2022/10/12 01:07:39;;;;;;;16.58;5.75;;;;;;;;;;4994544;28;20088;-68
2022/10/12 01:10:05;;;;;;;10.43;5.25;;;;;;;;;;4994540;28;20437;-67
2022/10/12 01:12:32;;;;;;;12.85;5.25;;;;;;;;;;4993058;28;20026;-68
2022/10/12 01:14:57;;;;;;;12.07;6.00;;;;;;;;;;4994160;28;20034;-69
2022/10/12 01:17:51;;;;;;;10.57;5.07;;;;;;;;;;4994415;28;20045;-66
2022/10/12 01:20:43;;;;;;;15.48;5.13;;;;;;;;;;4994011;28;20038;-67
2022/10/12 01:23:54;;;;;;;11.02;4.82;;;;;;;;;;4994138;28;20157;-67
2022/10/12 01:26:42;;;;;;;11.10;4.47;;;;;;;;;;4972296;28;20424;-69
2022/10/12 01:29:16;;;;;;;10.60;4.22;;;;;;;;;;4933605;29;20035;-68
2022/10/12 01:31:50;;;;;;;12.25;4.00;;;;;;;;;;4933933;29;20054;-68
2022/10/12 01:34:33;;;;;;;10.63;4.53;;;;;;;;;;4934164;29;20039;-67
2022/10/12 01:37:39;;;;;;;13.93;4.40;;;;;;;;;;4934158;29;20043;-67
2022/10/12 01:40:14;;;;;;;16.75;4.85;;;;;;;;;;4934140;29;20050;-67
2022/10/12 01:42:42;;;;;;;20.48;7.68;;;;;;;;;;4933785;29;20115;-66
2022/10/12 01:45:14;;;;;;;12.18;4.70;;;;;;;;;;4933983;29;20122;-68
2022/10/12 01:47:42;;;;;;;11.63;3.92;;;;;;;;;;4934017;29;20107;-67
2022/10/12 01:50:11;;;;;;;9.30;4.45;;;;;;;;;;4933786;29;20063;-67
2022/10/12 01:52:56;;;;;;;11.35;4.00;;;;;;;;;;4933679;29;20501;-67
2022/10/12 01:55:30;;;;;;;13.00;4.20;;;;;;;;;;4933893;29;20036;-67
2022/10/12 01:58:26;;;;;;;12.88;3.72;;;;;;;;;;4933635;29;20045;-67
2022/10/12 02:00:56;;;;;;;16.75;3.72;;;;;;;;;;4933724;29;20050;-67
2022/10/12 02:03:27;;;;;;;;;;;;;;;;;;4934149;29;20043;-66
2022/10/12 02:05:59;;;;;;;;;;;;;;;;;;4955463;28;19957;-67
2022/10/12 02:08:40;;;;;;;8.23;3.20;;;;;;;;;;4993741;28;19920;-67
2022/10/12 02:11:09;;;;;;;8.15;3.00;;;;;;;;;;4993670;28;20022;-67
2022/10/12 02:13:40;;;;;;;12.77;2.80;;;;;;;;;;4993298;28;20547;-66
2022/10/12 02:16:13;;;;;;;11.55;3.15;;;;;;;;;;4993556;28;20035;-68
2022/10/12 02:18:43;;;;;;;9.65;3.17;;;;;;;;;;4993231;28;20149;-66
2022/10/12 02:21:11;;;;;;;10.95;2.45;;;;;;;;;;4993178;28;20041;-67
2022/10/12 02:23:38;;;;;;;8.88;2.55;;;;;;;;;;4993384;28;20022;-67
2022/10/12 02:26:05;;;;;;;11.32;2.42;;;;;;;;;;4993127;28;20428;-67
2022/10/12 02:28:34;;;;;;;8.57;2.20;;;;;;;;;;4993133;28;20018;-67
2022/10/12 02:31:21;;;;;;;8.60;2.42;;;;;;;;;;4993182;28;20033;-66
2022/10/12 02:34:07;;;;;;;13.18;2.58;;;;;;;;;;4993273;28;20117;-67
2022/10/12 02:36:45;;;;;;;5.82;2.00;;;;;;;;;;4993315;28;20081;-66
2022/10/12 02:39:20;;;;;;;10.02;2.65;;;;;;;;;;4995510;28;20086;-67
2022/10/12 02:41:51;;;;;;;9.57;2.67;;;;;;;;;;4996914;28;20086;-67
2022/10/12 02:44:25;;;;;;;10.98;2.70;;;;;;;;;;4997284;28;20030;-67
2022/10/12 02:46:52;;;;;;;8.32;3.10;;;;;;;;;;4997270;28;20052;-67
2022/10/12 02:49:21;;;;;;;13.63;2.72;;;;;;;;;;4997126;28;20035;-67
2022/10/12 02:51:47;;;;;;;8.82;2.83;;;;;;;;;;4996999;28;20018;-67
2022/10/12 02:54:13;;;;;;;7.93;2.50;;;;;;;;;;4997002;28;20069;-67
2022/10/12 02:56:44;;;;;;;10.32;2.42;;;;;;;;;;4996672;28;20113;-68
2022/10/12 02:59:10;;;;;;;9.73;2.35;;;;;;;;;;4996882;28;20031;-68
2022/10/12 03:01:36;;;;;;;10.82;4.63;;;;;;;;;;4996939;28;20026;-68
2022/10/12 03:04:01;;;;;;;11.88;2.80;;;;;;;;;;4996720;28;20356;-67
2022/10/12 03:06:27;;;;;;;9.68;3.38;;;;;;;;;;4996774;28;20034;-67
2022/10/12 03:08:55;;;;;;;6.50;2.13;;;;;;;;;;4996754;28;20023;-68
2022/10/12 03:11:22;;;;;;;7.90;2.17;;;;;;;;;;4996385;28;20050;-67
2022/10/12 03:13:47;;;;;;;10.27;2.40;;;;;;;;;;4996609;28;20038;-67
2022/10/12 03:16:12;;;;;;;11.02;2.00;;;;;;;;;;4996509;28;20022;-67
2022/10/12 03:18:38;;;;;;;11.88;2.55;;;;;;;;;;4996350;28;20121;-67
2022/10/12 03:21:04;;;;;;;7.30;2.25;;;;;;;;;;4996374;28;20041;-67
2022/10/12 03:23:30;;;;;;;17.00;3.05;;;;;;;;;;4996348;28;20089;-67
2022/10/12 03:25:55;;;;;;;14.02;2.63;;;;;;;;;;4996108;28;20029;-67
2022/10/12 03:28:21;;;;;;;6.82;2.40;;;;;;;;;;4996429;28;20081;-67
2022/10/12 03:30:46;;;;;;;7.28;2.10;;;;;;;;;;4996321;28;20034;-67
2022/10/12 03:33:12;;;;;;;8.32;2.20;;;;;;;;;;4996282;28;20030;-67
2022/10/12 03:35:38;;;;;;;8.57;2.03;;;;;;;;;;4996293;28;20504;-67
2022/10/12 03:38:03;;;;;;;7.72;2.40;;;;;;;;;;4996403;28;20095;-67
2022/10/12 03:40:29;;;;;;;7.90;2.63;;;;;;;;;;4995898;28;20033;-67
2022/10/12 03:42:55;;;;;;;9.45;2.60;;;;;;;;;;4996095;28;20118;-67
2022/10/12 03:45:20;;;;;;;9.68;2.42;;;;;;;;;;4996191;28;20117;-68
2022/10/12 03:47:46;;;;;;;9.25;2.10;;;;;;;;;;4996148;28;20081;-67
2022/10/12 03:50:12;;;;;;;11.07;2.40;;;;;;;;;;4996011;28;20037;-66
2022/10/12 03:52:38;;;;;;;14.73;2.88;;;;;;;;;;4995691;28;20027;-67
2022/10/12 03:55:04;;;;;;;7.25;1.92;;;;;;;;;;4995760;28;20026;-67
2022/10/12 03:57:29;;;;;;;8.80;2.08;;;;;;;;;;4995563;28;20026;-67
2022/10/12 03:59:54;;;;;;;10.80;3.03;;;;;;;;;;4995932;28;20039;-68
2022/10/12 04:02:20;;;;;;;8.40;2.30;;;;;;;;;;4995883;28;20471;-66
2022/10/12 04:04:45;;;;;;;9.00;2.38;;;;;;;;;;4995750;28;20376;-67
2022/10/12 04:07:11;;;;;;;9.10;2.38;;;;;;;;;;4995735;28;20030;-69
2022/10/12 04:09:36;;;;;;;9.30;2.90;;;;;;;;;;4995468;28;20026;-67
2022/10/12 04:12:02;;;;;;;9.10;2.15;;;;;;;;;;4995454;28;20038;-67
2022/10/12 04:14:27;;;;;;;7.25;2.25;;;;;;;;;;4995422;28;20106;-66
2022/10/12 04:16:53;;;;;;;7.65;2.38;;;;;;;;;;4995517;28;20468;-66
2022/10/12 04:19:19;;;;;;;8.90;2.55;;;;;;;;;;4995325;28;20046;-68
2022/10/12 04:21:44;;;;;;;9.13;2.95;;;;;;;;;;4995257;28;20125;-67
2022/10/12 04:24:10;;;;;;;6.75;2.47;;;;;;;;;;4995191;28;20113;-66
2022/10/12 04:26:36;;;;;;;10.15;2.45;;;;;;;;;;4995276;28;20391;-68
2022/10/12 04:29:01;;;;;;;11.88;2.50;;;;;;;;;;4994950;28;20113;-67
2022/10/12 04:31:27;;;;;;;8.40;2.20;;;;;;;;;;4995309;28;20091;-67
2022/10/12 04:33:55;;;;;;;9.98;2.40;;;;;;;;;;4995199;28;20048;-68
2022/10/12 04:36:22;;;;;;;6.90;2.60;;;;;;;;;;4995143;28;20026;-68
2022/10/12 04:38:48;;;;;;;10.68;3.00;;;;;;;;;;4994854;28;20031;-67
2022/10/12 04:41:13;;;;;;;8.18;2.90;;;;;;;;;;4995093;28;20034;-68
2022/10/12 04:43:39;;;;;;;8.55;2.88;;;;;;;;;;4993790;28;20041;-68
2022/10/12 04:46:04;;;;;;;10.32;2.90;;;;;;;;;;4995003;28;20110;-67
2022/10/12 04:48:30;;;;;;;12.52;3.20;;;;;;;;;;4994846;28;20026;-67
2022/10/12 04:50:55;;;;;;;13.98;3.03;;;;;;;;;;4993498;28;20146;-67
2022/10/12 04:53:20;;;;;;;11.50;2.92;;;;;;;;;;4994260;28;20476;-68
2022/10/12 04:55:46;;;;;;;6.07;2.28;;;;;;;;;;4994795;28;20037;-67
2022/10/12 04:58:11;;;;;;;10.13;3.40;;;;;;;;;;4994707;28;20113;-67
2022/10/12 05:00:37;;;;;;;9.18;3.20;;;;;;;;;;4994497;28;20029;-67
2022/10/12 05:03:03;;;;;;;14.13;3.53;;;;;;;;;;4994370;28;20026;-67
2022/10/12 05:05:28;;;;;;;10.68;3.30;;;;;;;;;;4994464;28;20056;-67
2022/10/12 05:07:53;;;;;;;8.43;2.90;;;;;;;;;;4994363;28;20030;-68
2022/10/12 05:10:19;;;;;;;9.70;3.30;;;;;;;;;;4994546;28;20054;-68
2022/10/12 05:12:44;;;;;;;8.25;2.50;;;;;;;;;;4994266;28;20045;-67
2022/10/12 05:15:10;;;;;;;11.70;2.63;;;;;;;;;;4994437;28;20477;-67
2022/10/12 05:17:36;;;;;;;10.63;2.72;;;;;;;;;;4994417;28;20399;-67
2022/10/12 05:20:02;;;;;;;8.43;2.97;;;;;;;;;;4993859;28;20110;-67
2022/10/12 05:22:27;;;;;;;11.65;3.67;;;;;;;;;;4994334;28;20038;-67
2022/10/12 05:24:53;;;;;;;7.95;3.65;;;;;;;;;;4994180;28;20037;-66
2022/10/12 05:27:18;;;;;;;11.18;3.22;;;;;;;;;;4994081;28;20110;-67
2022/10/12 05:29:43;;;;;;;10.93;3.13;;;;;;;;;;4993843;28;20499;-67
2022/10/12 05:32:09;;;;;;;12.25;2.88;;;;;;;;;;4993898;28;20507;-67
2022/10/12 05:34:34;;;;;;;12.05;3.03;;;;;;;;;;4993711;28;20135;-68
2022/10/12 05:37:00;;;;;;;10.43;3.70;;;;;;;;;;4993996;28;20053;-67
2022/10/12 05:39:26;;;;;;;13.65;3.55;;;;;;;;;;4993904;28;20018;-68
2022/10/12 05:41:53;;;;;;;9.27;3.15;;;;;;;;;;4993726;28;20113;-67
2022/10/12 05:44:19;;;;;;;8.75;3.53;;;;;;;;;;4993864;28;20034;-67
2022/10/12 05:46:45;;;;;;;9.23;3.47;;;;;;;;;;4993837;28;20038;-67
2022/10/12 05:49:10;;;;;;;11.48;3.13;;;;;;;;;;4993580;28;20153;-67
2022/10/12 05:51:37;;;;;;;12.38;3.38;;;;;;;;;;4993783;28;20034;-67
2022/10/12 05:54:03;;;;;;;12.73;3.90;;;;;;;;;;4993358;28;20037;-67
2022/10/12 05:56:29;;;;;;;13.68;3.40;;;;;;;;;;4993682;28;20034;-68
2022/10/12 05:58:54;;;;;;;11.93;3.60;;;;;;;;;;4993662;28;20488;-68
2022/10/12 06:01:20;;;;;;;12.55;3.55;;;;;;;;;;4993541;28;20030;-67
2022/10/12 06:03:45;;;;;;;14.52;4.47;;;;;;;;;;4992162;28;20038;-68
2022/10/12 06:06:11;;;;;;;11.85;3.38;;;;;;;;;;4993447;28;20038;-67
2022/10/12 06:08:36;;;;;;;10.68;3.47;;;;;;;;;;4993468;28;20026;-67
2022/10/12 06:11:02;;;;;;;10.88;3.45;;;;;;;;;;4993438;28;20552;-66
2022/10/12 06:13:27;;;;;;;15.40;3.53;;;;;;;;;;4992824;28;20423;-69
2022/10/12 06:15:53;;;;;;;20.33;4.70;;;;;;;;;;4993577;28;20026;-65
2022/10/12 06:18:19;;;;;;;13.68;4.00;;;;;;;;;;4992969;28;20037;-67
2022/10/12 06:20:52;;;;;;;13.27;4.32;;;;;;;;;;4993099;28;20380;-66
2022/10/12 06:23:19;;;;;;;8.90;4.40;;;;;;;;;;4993448;28;20034;-66
2022/10/12 06:25:46;;;;;;;11.82;4.60;;;;;;;;;;4993229;28;20029;-68
2022/10/12 06:28:13;;;;;;;17.55;5.07;;;;;;;;;;4993247;28;20030;-70
2022/10/12 06:30:38;;;;;;;12.77;5.35;;;;;;;;;;4993216;28;20030;-69
2022/10/12 06:33:04;;;;;;;12.63;4.20;;;;;;;;;;4993338;28;20532;-70
2022/10/12 06:35:29;;;;;;;9.20;3.45;;;;;;;;;;4993259;28;20030;-69
2022/10/12 06:37:55;;;;;;;9.07;4.18;;;;;;;;;;4993297;28;20033;-67
2022/10/12 06:40:20;;;;;;;11.23;2.70;;;;;;;;;;4993387;28;20109;-67
2022/10/12 06:42:48;;;;;;;12.68;3.03;;;;;;;;;;4993120;28;20129;-67
2022/10/12 06:45:14;;;;;;;8.55;2.97;;;;;;;;;;4993181;28;20046;-67
2022/10/12 06:47:39;;;;;;;9.63;2.80;;;;;;;;;;4993097;28;20066;-68
2022/10/12 06:50:06;;;;;;;13.18;3.53;;;;;;;;;;4993103;28;20113;-67
2022/10/12 06:52:31;;;;;;;17.08;3.63;;;;;;;;;;4992973;28;20030;-66
2022/10/12 06:54:57;;;;;;;14.00;3.30;;;;;;;;;;4993108;28;20109;-72
2022/10/12 06:57:22;;;;;;;13.70;3.05;;;;;;;;;;4993121;28;20022;-69
2022/10/12 06:59:47;;;;;;;17.23;4.03;;;;;;;;;;4993043;28;20023;-68
2022/10/12 07:02:13;;;;;;;7.93;3.00;;;;;;;;;;4992760;28;20034;-70
2022/10/12 07:04:38;;;;;;;11.05;3.45;;;;;;;;;;4992992;28;20038;-71
2022/10/12 07:07:04;;;;;;;10.90;3.30;;;;;;;;;;4992944;28;20033;-67
2022/10/12 07:09:29;;;;;;;12.75;4.00;;;;;;;;;;4993016;28;20038;-69
2022/10/12 07:11:55;;;;;;;9.52;3.30;;;;;;;;;;4991583;28;20035;-71
2022/10/12 07:14:20;;;;;;;12.32;3.88;;;;;;;;;;4993028;28;20033;-72
2022/10/12 07:16:46;;;;;;;16.15;4.05;;;;;;;;;;4992828;28;20447;-72
2022/10/12 07:19:12;;;;;;;14.98;3.58;;;;;;;;;;4992716;28;20392;-71
2022/10/12 07:21:37;;;;;;;10.02;3.90;;;;;;;;;;4992725;28;20034;-68
2022/10/12 07:24:03;;;;;;;20.38;4.50;;;;;;;;;;4993235;28;20048;-71
2022/10/12 07:26:29;;;;;;;11.40;3.95;;;;;;;;;;4996470;28;20345;-72
2022/10/12 07:28:54;;;;;;;10.20;3.90;;;;;;;;;;4996462;28;20026;-70
2022/10/12 07:31:19;;;;;;;16.98;4.15;;;;;;;;;;4996159;28;20109;-73
2022/10/12 07:33:45;;;;;;;13.63;3.40;;;;;;;;;;4996341;28;20467;-68
2022/10/12 07:36:10;;;;;;;16.27;4.80;;;;;;;;;;4996385;28;20027;-72
2022/10/12 07:38:36;;;;;;;17.45;4.18;;;;;;;;;;4996229;28;20468;-72
2022/10/12 07:41:03;;;;;;;12.45;5.05;;;;;;;;;;4996241;28;20057;-71
2022/10/12 07:43:29;;;;;;;15.20;5.05;;;;;;;;;;4996212;28;20034;-68
2022/10/12 07:45:56;;;;;;;13.70;5.38;;;;;;;;;;4995835;28;20061;-72
2022/10/12 07:48:22;;;;;;;17.88;6.10;;;;;;;;;;4996180;28;20372;-71
2022/10/12 07:50:48;;;;;;;14.80;5.78;;;;;;;;;;4995902;28;20169;-68
2022/10/12 07:53:13;;;;;;;18.98;6.50;;;;;;;;;;4995920;28;20042;-71
2022/10/12 07:55:39;;;;;;;23.13;6.70;;;;;;;;;;4995905;28;20135;-71
2022/10/12 07:58:05;;;;;;;20.55;6.28;;;;;;;;;;4995986;28;20432;-70
2022/10/12 08:00:31;;;;;;;24.73;6.65;;;;;;;;;;4995567;28;20419;-71
2022/10/12 08:02:57;;;;;;;19.25;4.82;;;;;;;;;;4995973;28;20098;-68
2022/10/12 08:05:23;;;;;;;17.75;4.22;;;;;;;;;;4995670;28;20088;-72
2022/10/12 08:07:50;;;;;;;21.50;4.15;;;;;;;;;;4995651;28;20102;-71
2022/10/12 08:10:16;;;;;;;19.80;4.60;;;;;;;;;;4995749;28;20487;-70
2022/10/12 08:12:42;;;;;;;14.73;4.22;;;;;;;;;;4995442;28;20026;-70
2022/10/12 08:15:08;;;;;;;20.42;5.00;;;;;;;;;;4995316;28;20024;-72
2022/10/12 08:17:34;;;;;;;14.27;3.90;;;;;;;;;;4995528;28;20022;-73
2022/10/12 08:19:59;;;;;;;12.52;3.53;;;;;;;;;;4995124;28;20046;-71
2022/10/12 08:22:24;;;;;;;14.73;3.47;;;;;;;;;;4995318;28;20092;-67
2022/10/12 08:24:50;;;;;;;12.48;3.60;;;;;;;;;;4995403;28;20049;-70
2022/10/12 08:27:15;;;;;;;18.67;3.75;;;;;;;;;;4995475;28;20069;-71
2022/10/12 08:29:41;;;;;;;17.90;4.00;;;;;;;;;;4995159;28;20376;-70
2022/10/12 08:32:06;;;;;;;20.65;3.63;;;;;;;;;;4995246;28;20034;-72
2022/10/12 08:34:32;;;;;;;21.90;3.50;;;;;;;;;;4993949;28;20093;-72
2022/10/12 08:37:01;;;;;;;17.48;3.70;;;;;;;;;;4994347;28;20033;-70
2022/10/12 08:39:26;;;;;;;14.48;3.80;;;;;;;;;;4995125;28;20034;-71
2022/10/12 08:42:00;;;;;;;16.42;3.53;;;;;;;;;;4994875;28;20030;-71
2022/10/12 08:44:52;;;;;;;22.60;3.63;;;;;;;;;;4994890;28;20030;-71
2022/10/12 08:47:35;;;;;;;17.40;3.53;;;;;;;;;;4995032;28;20034;-71
2022/10/12 08:50:03;;;;;;;8.93;3.00;;;;;;;;;;4994809;28;20476;-69
2022/10/12 08:52:42;;;;;;;15.60;3.22;;;;;;;;;;4994830;28;20551;-67
2022/10/12 08:55:39;;;;;;;12.20;3.40;;;;;;;;;;4995029;28;20101;-68
2022/10/12 08:58:16;;;;;;;18.08;3.55;;;;;;;;;;4992878;28;20506;-68
2022/10/12 09:00:45;;;;;;;13.10;3.20;;;;;;;;;;4994600;28;20482;-68
2022/10/12 09:03:19;;;;;;;13.32;4.28;;;;;;;;;;4994568;28;20069;-66
2022/10/12 09:06:13;;;;;;;12.32;3.45;;;;;;;;;;4994763;28;20373;-67
2022/10/12 09:09:01;;;;;;;14.90;3.72;;;;;;;;;;4992363;28;20046;-67
2022/10/12 09:11:49;;;;;;;16.80;3.58;;;;;;;;;;4994635;28;20109;-66
2022/10/12 09:14:28;;;;;;;9.70;3.17;;;;;;;;;;4993009;28;20038;-67
2022/10/12 09:16:55;;;;;;;12.82;2.83;;;;;;;;;;4994443;28;20030;-68
2022/10/12 09:19:27;;;;;;;17.20;3.35;;;;;;;;;;4994151;28;20109;-71
2022/10/12 09:21:52;;;;;;;9.95;3.17;;;;;;;;;;4994032;28;20053;-71
2022/10/12 09:24:25;;;;;;;10.43;2.78;;;;;;;;;;4994397;28;20463;-69
2022/10/12 09:26:53;;;;;;;15.18;3.88;;;;;;;;;;4993860;28;20042;-71
2022/10/12 09:29:24;;;;;;;16.02;3.45;;;;;;;;;;4994201;28;20026;-71
2022/10/12 09:32:11;;;;;;;11.18;3.58;;;;;;;;;;4994151;28;20053;-71
2022/10/12 09:34:37;;;;;;;7.72;2.70;;;;;;;;;;4994246;28;20113;-71
2022/10/12 09:37:04;;;;;;;14.63;3.10;;;;;;;;;;4994319;28;20536;-67
2022/10/12 09:39:35;;;;;;;13.52;2.80;;;;;;;;;;4994178;28;20365;-67
2022/10/12 09:42:01;;;;;;;13.30;3.25;;;;;;;;;;4993885;28;20117;-67
2022/10/12 09:44:44;;;;;;;10.52;2.70;;;;;;;;;;4994092;28;20035;-67
2022/10/12 09:47:32;;;;;;;14.77;3.22;;;;;;;;;;4993938;28;20037;-68
2022/10/12 09:50:03;;;;;;;12.80;3.30;;;;;;;;;;4993740;28;20365;-67
2022/10/12 09:52:41;;;;;;;10.57;2.90;;;;;;;;;;4993771;28;20030;-67
2022/10/12 09:55:15;;;;;;;10.52;2.80;;;;;;;;;;4994060;28;20023;-67
2022/10/12 09:57:43;;;;;;;10.25;2.80;;;;;;;;;;4993763;28;20384;-67
2022/10/12 10:00:23;;;;;;;13.15;2.75;;;;;;;;;;4993781;28;20066;-67
2022/10/12 10:02:51;;;;;;;15.30;3.30;;;;;;;;;;4993803;28;20035;-67
2022/10/12 10:05:22;;;;;;;8.13;3.10;;;;;;;;;;4993613;28;20022;-66
2022/10/12 10:07:48;;;;;;;13.50;2.95;;;;;;;;;;4993577;28;20058;-68
2022/10/12 10:10:20;;;;;;;10.75;3.10;;;;;;;;;;4993203;28;20065;-67
2022/10/12 10:12:54;;;;;;;12.80;3.13;;;;;;;;;;4993523;28;20054;-68
2022/10/12 10:15:28;;;;;;;15.02;3.03;;;;;;;;;;4993875;28;20383;-67
2022/10/12 10:17:59;;;;;;;10.93;2.85;;;;;;;;;;4993536;28;20105;-68
2022/10/12 10:20:58;;;;;;;16.10;3.75;;;;;;;;;;4993093;28;20080;-67
2022/10/12 10:23:34;;;;;;;11.40;2.72;;;;;;;;;;4991699;28;20089;-67
2022/10/12 10:26:04;;;;;;;14.40;2.83;;;;;;;;;;4993245;28;20029;-68
2022/10/12 10:28:35;;;;;;;12.05;2.78;;;;;;;;;;4993423;28;20014;-68
2022/10/12 10:31:24;;;;;;;13.05;2.90;;;;;;;;;;4993420;28;20061;-69
2022/10/12 10:34:16;;;;;;;13.85;3.15;;;;;;;;;;4993323;28;20049;-66
2022/10/12 10:36:47;;;;;;;11.05;3.47;;;;;;;;;;4991184;28;20416;-67
2022/10/12 10:39:23;;;;;;;11.95;3.08;;;;;;;;;;4991889;28;20439;-67
2022/10/12 10:41:49;;;;;;;15.13;2.85;;;;;;;;;;4993152;28;20023;-68
2022/10/12 10:44:30;;;;;;;17.55;2.92;;;;;;;;;;4993268;28;20031;-69
2022/10/12 10:47:06;;;;;;;14.52;3.72;;;;;;;;;;4993344;28;20034;-67
2022/10/12 10:49:50;;;;;;;15.93;2.70;;;;;;;;;;4993337;28;20030;-70
2022/10/12 10:52:23;;;;;;;9.93;2.80;;;;;;;;;;4993073;28;20077;-68
2022/10/12 10:55:11;;;;;;;13.05;2.63;;;;;;;;;;4992900;28;20030;-67
2022/10/12 10:57:49;;;;;;;8.25;2.47;;;;;;;;;;4993309;28;20093;-66
2022/10/12 11:00:18;;;;;;;9.00;2.63;;;;;;;;;;4995359;28;20456;-70
2022/10/12 11:02:46;;;;;;;8.73;2.40;;;;;;;;;;4996906;28;20034;-67
2022/10/12 11:05:34;;;;;;;14.63;2.67;;;;;;;;;;4996819;28;20502;-68
2022/10/12 11:08:11;;;;;;;13.73;3.70;;;;;;;;;;4993020;28;20499;-67
2022/10/12 11:10:50;;;;;;;17.17;2.45;;;;;;;;;;4996740;28;20113;-67
2022/10/12 11:13:27;;;;;;;18.27;3.15;;;;;;;;;;4996514;28;20041;-68
2022/10/12 11:16:03;;;;;;;10.65;2.47;;;;;;;;;;4996848;28;20034;-67
2022/10/12 11:18:43;;;;;;;12.95;2.38;;;;;;;;;;4996791;28;20372;-67
2022/10/12 11:21:23;;;;;;;12.50;2.38;;;;;;;;;;4996524;28;20121;-67
2022/10/12 11:24:12;;;;;;;10.88;2.17;;;;;;;;;;4996642;28;20116;-67
2022/10/12 11:26:50;;;;;;;17.13;2.55;;;;;;;;;;4996149;28;20101;-66
2022/10/12 11:29:16;;;;;;;11.65;2.80;;;;;;;;;;4996436;28;20030;-68
2022/10/12 11:32:06;;;;;;;15.65;2.90;;;;;;;;;;4996370;28;20026;-67
2022/10/12 11:34:44;;;;;;;11.48;3.38;;;;;;;;;;4996287;28;20392;-67
2022/10/12 11:37:17;;;;;;;21.40;3.90;;;;;;;;;;4996177;28;20030;-67
2022/10/12 11:39:46;;;;;;;14.68;4.13;;;;;;;;;;4996321;28;20484;-68
2022/10/12 11:42:18;;;;;;;12.15;3.03;;;;;;;;;;4996015;28;20479;-67
2022/10/12 11:44:46;;;;;;;10.65;2.80;;;;;;;;;;4994932;28;20420;-67
2022/10/12 11:47:11;;;;;;;11.40;2.90;;;;;;;;;;4996124;28;20110;-67
2022/10/12 11:49:52;;;;;;;12.25;3.33;;;;;;;;;;4996147;28;20180;-67
2022/10/12 11:52:19;;;;;;;11.35;2.95;;;;;;;;;;4994485;28;20130;-66
2022/10/12 11:55:02;;;;;;;10.60;2.47;;;;;;;;;;4995799;28;20084;-67
2022/10/12 11:57:32;;;;;;;8.63;2.15;;;;;;;;;;4995967;28;20034;-67
2022/10/12 12:00:15;;;;;;;9.55;1.98;;;;;;;;;;4995804;28;20030;-67
2022/10/12 12:02:44;;;;;;;8.90;2.50;;;;;;;;;;4995849;28;20550;-67
2022/10/12 12:05:15;;;;;;;14.53;2.27;;;;;;;;;;4995958;28;20045;-66
2022/10/12 12:08:01;;;;;;;8.82;2.38;;;;;;;;;;4995490;28;20268;-68
2022/10/12 12:10:26;;;;;;;5.95;1.70;;;;;;;;;;4995132;28;20357;-67
2022/10/12 12:13:13;;;;;;;11.07;2.00;;;;;;;;;;4995069;28;20041;-67
2022/10/12 12:15:58;;;;;;;13.95;2.10;;;;;;;;;;4995594;28;20026;-67
2022/10/12 12:18:28;;;;;;;11.95;2.60;;;;;;;;;;4995046;28;20062;-67
2022/10/12 12:21:01;;;;;;;9.55;1.73;;;;;;;;;;4994837;28;20503;-69
2022/10/12 12:23:34;;;;;;;7.03;1.95;;;;;;;;;;4995442;28;20026;-67
2022/10/12 12:26:20;;;;;;;9.60;1.63;;;;;;;;;;4995510;28;20561;-66
2022/10/12 12:28:49;;;;;;;9.70;2.15;;;;;;;;;;4995457;28;20030;-67
2022/10/12 12:31:27;;;;;;;6.38;1.50;;;;;;;;;;4995272;28;20022;-67
2022/10/12 12:34:21;;;;;;;6.88;1.73;;;;;;;;;;4995024;28;20122;-67
2022/10/12 12:36:50;;;;;;;9.00;2.10;;;;;;;;;;4990376;28;20034;-67
2022/10/12 12:39:32;;;;;;;8.57;2.10;;;;;;;;;;4995210;28;20114;-67
2022/10/12 12:42:01;;;;;;;10.93;2.00;;;;;;;;;;4995195;28;20556;-66
2022/10/12 12:44:44;;;;;;;6.65;1.60;;;;;;;;;;4995060;28;20026;-68
2022/10/12 12:47:09;;;;;;;8.27;1.48;;;;;;;;;;4995079;28;20038;-66
2022/10/12 12:49:59;;;;;;;6.55;1.33;;;;;;;;;;4994888;28;20030;-67
2022/10/12 12:52:24;;;;;;;6.00;1.50;;;;;;;;;;4994922;28;20026;-66
2022/10/12 12:55:02;;;;;;;5.63;2.10;;;;;;;;;;4994813;28;20045;-65
2022/10/12 12:57:54;;;;;;;8.98;1.70;;;;;;;;;;4994904;28;20358;-66
2022/10/12 13:00:24;;;;;;;7.25;1.70;;;;;;;;;;4994773;28;20023;-66
2022/10/12 13:03:20;;;;;;;6.97;1.90;;;;;;;;;;4994635;28;20050;-66
2022/10/12 13:06:00;;;;;;;7.22;2.10;;;;;;;;;;4994447;28;20117;-68
2022/10/12 13:08:37;;;;;;;8.40;1.67;;;;;;;;;;4994542;28;20026;-67
2022/10/12 13:11:44;;;;;;;6.72;1.60;;;;;;;;;;4994670;28;20057;-66
2022/10/12 13:14:33;;;;;;;6.57;1.95;;;;;;;;;;4972691;28;20125;-66
2022/10/12 13:17:35;;;;;;;9.05;1.90;;;;;;;;;;4972829;28;20046;-66
2022/10/12 13:20:25;;;;;;;6.53;1.88;;;;;;;;;;4972174;28;20162;-67
2022/10/12 13:22:54;;;;;;;3.35;1.17;;;;;;;;;;4972196;28;20035;-67
2022/10/12 13:25:44;;;;;;;7.43;1.48;;;;;;;;;;4972652;28;20074;-68
2022/10/12 13:28:15;;;;;;;6.70;1.23;;;;;;;;;;4972808;28;20527;-67
2022/10/12 13:31:15;;;;;;;6.63;1.92;;;;;;;;;;4972615;28;20486;-67
2022/10/12 13:34:16;;;;;;;9.02;1.67;;;;;;;;;;4933864;29;20050;-67
2022/10/12 13:36:58;;;;;;;7.10;1.80;;;;;;;;;;4934108;29;20390;-67
2022/10/12 13:39:24;;;;;;;4.43;1.48;;;;;;;;;;4933941;29;20058;-69
2022/10/12 13:41:54;;;;;;;6.13;1.48;;;;;;;;;;4933996;29;20047;-67
2022/10/12 13:44:28;;;;;;;11.85;2.42;;;;;;;;;;4933662;29;20047;-69
2022/10/12 13:46:57;;;;;;;8.43;1.88;;;;;;;;;;4933989;29;20024;-67
2022/10/12 13:49:40;;;;;;;5.80;1.70;;;;;;;;;;4933640;29;20035;-68
2022/10/12 13:52:11;;;;;;;8.20;1.70;;;;;;;;;;4918013;29;20039;-68
2022/10/12 13:54:42;;;;;;;5.20;1.25;;;;;;;;;;4933560;29;20034;-68
2022/10/12 13:57:28;;;;;;;5.65;1.58;;;;;;;;;;4933915;29;20032;-67
2022/10/12 14:00:19;;;;;;;4.50;1.65;;;;;;;;;;4917554;29;20035;-67
2022/10/12 14:03:02;;;;;;;5.40;1.30;;;;;;;;;;4928257;29;20036;-67
2022/10/12 14:05:32;;;;;;;6.80;1.38;;;;;;;;;;4933793;29;20605;-67
2022/10/12 14:08:02;;;;;;;8.27;1.93;;;;;;;;;;4933655;29;20042;-67
2022/10/12 14:10:31;;;;;;;10.02;1.88;;;;;;;;;;4993667;28;20484;-68
2022/10/12 14:13:00;;;;;;;9.33;1.90;;;;;;;;;;4993715;28;20306;-68
2022/10/12 14:15:31;;;;;;;10.00;2.10;;;;;;;;;;4993568;28;20302;-67
2022/10/12 14:17:56;;;;;;;6.57;2.03;;;;;;;;;;4993306;28;20476;-68
2022/10/12 14:20:29;;;;;;;4.60;1.98;;;;;;;;;;4993064;28;20092;-68
2022/10/12 14:22:57;;;;;;;6.63;1.88;;;;;;;;;;4993272;28;20026;-67
2022/10/12 14:25:25;;;;;;;6.22;1.92;;;;;;;;;;4993452;28;20076;-67
2022/10/12 14:28:03;;;;;;;8.27;2.22;;;;;;;;;;4993441;28;20372;-67
2022/10/12 14:30:35;;;;;;;9.80;1.92;;;;;;;;;;4993451;28;20014;-71
2022/10/12 14:33:16;;;;;;;7.60;2.15;;;;;;;;;;4993101;28;20098;-68
2022/10/12 14:35:46;;;;;;;11.13;2.20;;;;;;;;;;4996464;28;20468;-67
2022/10/12 14:38:37;;;;;;;11.95;2.60;;;;;;;;;;4997293;28;20026;-67
2022/10/12 14:41:27;;;;;;;6.57;2.10;;;;;;;;;;4997236;28;20026;-68
2022/10/12 14:44:14;;;;;;;7.30;2.47;;;;;;;;;;4997180;28;20022;-68
2022/10/12 14:46:49;;;;;;;10.27;3.15;;;;;;;;;;4996927;28;20041;-67
2022/10/12 14:49:18;;;;;;;10.45;3.00;;;;;;;;;;4997277;28;20494;-67
2022/10/12 14:51:45;;;;;;;9.07;2.60;;;;;;;;;;4997099;28;20034;-67
2022/10/12 14:54:11;;;;;;;12.52;2.97;;;;;;;;;;4997134;28;20100;-68
2022/10/12 14:56:37;;;;;;;9.00;1.83;;;;;;;;;;4996833;28;20033;-70
2022/10/12 14:59:02;;;;;;;10.10;2.50;;;;;;;;;;4997131;28;20423;-68
2022/10/12 15:01:28;;;;;;;6.72;2.10;;;;;;;;;;4996649;28;20030;-69